sensor_id;sensor_type;location;lat;lon;timestamp;temperature;humidity
12922;DHT22;6528;48.086;16.282;2023-09-19T00:00:39;23.30;1.00
12922;DHT22;6528;48.086;16.282;2023-09-19T00:03:09;23.40;1.00
12922;DHT22;6528;48.086;16.282;2023-09-19T00:05:38;23.30;1.00
12922;DHT22;6528;48.086;16.282;2023-09-19T00:08:06;23.30;1.00
12922;DHT22;6528;48.086;16.282;2023-09-19T00:10:34;23.30;1.00
12922;DHT22;6528;48.086;16.282;2023-09-19T00:13:06;23.30;1.00
12922;DHT22;6528;48.086;16.282;2023-09-19T00:15:40;23.30;1.00
12922;DHT22;6528;48.086;16.282;2023-09-19T00:18:09;23.20;1.00
12922;DHT22;6528;48.086;16.282;2023-09-19T00:20:37;23.00;1.00
12922;DHT22;6528;48.086;16.282;2023-09-19T00:23:06;22.90;1.00
12922;DHT22;6528;48.086;16.282;2023-09-19T00:25:36;22.90;1.00
12922;DHT22;6528;48.086;16.282;2023-09-19T00:28:05;22.90;1.00
12922;DHT22;6528;48.086;16.282;2023-09-19T00:30:34;23.00;1.00
12922;DHT22;6528;48.086;16.282;2023-09-19T00:33:02;22.90;1.00
12922;DHT22;6528;48.086;16.282;2023-09-19T00:35:32;22.90;1.00
12922;DHT22;6528;48.086;16.282;2023-09-19T00:38:00;22.80;1.00
12922;DHT22;6528;48.086;16.282;2023-09-19T00:40:29;22.80;1.00
12922;DHT22;6528;48.086;16.282;2023-09-19T00:42:59;22.70;1.00
12922;DHT22;6528;48.086;16.282;2023-09-19T00:45:27;22.70;1.00
12922;DHT22;6528;48.086;16.282;2023-09-19T00:47:55;22.70;1.00
12922;DHT22;6528;48.086;16.282;2023-09-19T00:50:25;22.80;1.00
12922;DHT22;6528;48.086;16.282;2023-09-19T00:52:56;22.80;1.00
12922;DHT22;6528;48.086;16.282;2023-09-19T00:55:24;22.80;1.00
12922;DHT22;6528;48.086;16.282;2023-09-19T00:57:52;22.70;1.00
12922;DHT22;6528;48.086;16.282;2023-09-19T01:00:22;22.70;1.00
12922;DHT22;6528;48.086;16.282;2023-09-19T01:02:50;22.70;1.00
12922;DHT22;6528;48.086;16.282;2023-09-19T01:05:18;22.80;1.00
12922;DHT22;6528;48.086;16.282;2023-09-19T01:07:46;22.90;1.00
12922;DHT22;6528;48.086;16.282;2023-09-19T01:10:17;22.80;1.00
12922;DHT22;6528;48.086;16.282;2023-09-19T01:13:08;22.70;1.00
12922;DHT22;6528;48.086;16.282;2023-09-19T01:15:51;22.80;1.00
12922;DHT22;6528;48.086;16.282;2023-09-19T01:30:11;22.50;1.00
12922;DHT22;6528;48.086;16.282;2023-09-19T01:32:41;22.50;1.00
12922;DHT22;6528;48.086;16.282;2023-09-19T01:35:10;22.50;1.00
12922;DHT22;6528;48.086;16.282;2023-09-19T01:37:40;22.60;1.00
12922;DHT22;6528;48.086;16.282;2023-09-19T01:40:17;22.50;1.00
12922;DHT22;6528;48.086;16.282;2023-09-19T01:43:03;22.40;1.00
12922;DHT22;6528;48.086;16.282;2023-09-19T01:48:57;22.40;1.00
12922;DHT22;6528;48.086;16.282;2023-09-19T01:51:42;22.40;1.00
12922;DHT22;6528;48.086;16.282;2023-09-19T01:54:17;22.50;1.00
12922;DHT22;6528;48.086;16.282;2023-09-19T01:57:05;22.50;1.00
12922;DHT22;6528;48.086;16.282;2023-09-19T01:59:41;22.50;1.00
12922;DHT22;6528;48.086;16.282;2023-09-19T02:02:10;22.50;1.00
12922;DHT22;6528;48.086;16.282;2023-09-19T02:04:38;22.50;1.00
12922;DHT22;6528;48.086;16.282;2023-09-19T02:07:06;22.50;1.00
12922;DHT22;6528;48.086;16.282;2023-09-19T02:09:35;22.50;1.00
12922;DHT22;6528;48.086;16.282;2023-09-19T02:12:05;22.50;1.00
12922;DHT22;6528;48.086;16.282;2023-09-19T02:14:33;22.40;1.00
12922;DHT22;6528;48.086;16.282;2023-09-19T02:17:04;22.40;1.00
12922;DHT22;6528;48.086;16.282;2023-09-19T02:19:36;22.40;1.00
12922;DHT22;6528;48.086;16.282;2023-09-19T02:22:06;22.40;1.00
12922;DHT22;6528;48.086;16.282;2023-09-19T02:24:37;22.40;1.00
12922;DHT22;6528;48.086;16.282;2023-09-19T02:27:05;22.40;1.00
12922;DHT22;6528;48.086;16.282;2023-09-19T02:29:32;22.40;1.00
12922;DHT22;6528;48.086;16.282;2023-09-19T02:32:01;22.40;1.00
12922;DHT22;6528;48.086;16.282;2023-09-19T02:34:31;22.40;1.00
12922;DHT22;6528;48.086;16.282;2023-09-19T02:36:59;22.50;1.00
12922;DHT22;6528;48.086;16.282;2023-09-19T02:39:27;22.50;1.00
12922;DHT22;6528;48.086;16.282;2023-09-19T02:41:54;22.40;1.00
12922;DHT22;6528;48.086;16.282;2023-09-19T02:44:22;22.50;1.00
12922;DHT22;6528;48.086;16.282;2023-09-19T02:46:51;22.40;1.00
12922;DHT22;6528;48.086;16.282;2023-09-19T02:49:18;22.40;1.00
12922;DHT22;6528;48.086;16.282;2023-09-19T02:51:46;22.40;1.00
12922;DHT22;6528;48.086;16.282;2023-09-19T02:54:14;22.40;1.00
12922;DHT22;6528;48.086;16.282;2023-09-19T02:56:43;22.40;1.00
12922;DHT22;6528;48.086;16.282;2023-09-19T02:59:10;22.40;1.00
12922;DHT22;6528;48.086;16.282;2023-09-19T03:01:38;22.40;1.00
12922;DHT22;6528;48.086;16.282;2023-09-19T03:04:05;22.40;1.00
12922;DHT22;6528;48.086;16.282;2023-09-19T03:06:33;22.40;1.00
12922;DHT22;6528;48.086;16.282;2023-09-19T03:09:00;22.40;1.00
12922;DHT22;6528;48.086;16.282;2023-09-19T03:11:29;22.40;1.00
12922;DHT22;6528;48.086;16.282;2023-09-19T03:13:57;22.40;1.00
12922;DHT22;6528;48.086;16.282;2023-09-19T03:16:25;22.30;1.00
12922;DHT22;6528;48.086;16.282;2023-09-19T03:18:52;22.30;1.00
12922;DHT22;6528;48.086;16.282;2023-09-19T03:21:20;22.30;1.00
12922;DHT22;6528;48.086;16.282;2023-09-19T03:23:48;22.30;1.00
12922;DHT22;6528;48.086;16.282;2023-09-19T03:26:16;22.30;1.00
12922;DHT22;6528;48.086;16.282;2023-09-19T03:28:43;22.30;1.00
12922;DHT22;6528;48.086;16.282;2023-09-19T03:31:11;22.30;1.00
12922;DHT22;6528;48.086;16.282;2023-09-19T03:33:38;22.40;1.00
12922;DHT22;6528;48.086;16.282;2023-09-19T03:36:06;22.40;1.00
12922;DHT22;6528;48.086;16.282;2023-09-19T03:38:34;22.40;1.00
12922;DHT22;6528;48.086;16.282;2023-09-19T03:41:02;22.30;1.00
12922;DHT22;6528;48.086;16.282;2023-09-19T03:43:32;22.30;1.00
12922;DHT22;6528;48.086;16.282;2023-09-19T03:46:02;22.30;1.00
12922;DHT22;6528;48.086;16.282;2023-09-19T03:48:31;22.30;1.00
12922;DHT22;6528;48.086;16.282;2023-09-19T03:50:59;22.30;1.00
12922;DHT22;6528;48.086;16.282;2023-09-19T03:53:26;22.30;1.00
12922;DHT22;6528;48.086;16.282;2023-09-19T03:55:53;22.40;1.00
12922;DHT22;6528;48.086;16.282;2023-09-19T03:58:20;22.40;1.00
12922;DHT22;6528;48.086;16.282;2023-09-19T04:00:48;22.40;1.00
12922;DHT22;6528;48.086;16.282;2023-09-19T04:03:17;22.40;1.00
12922;DHT22;6528;48.086;16.282;2023-09-19T04:05:48;22.40;1.00
12922;DHT22;6528;48.086;16.282;2023-09-19T04:08:15;22.40;1.00
12922;DHT22;6528;48.086;16.282;2023-09-19T04:10:43;22.40;1.00
12922;DHT22;6528;48.086;16.282;2023-09-19T04:13:13;22.40;1.00
12922;DHT22;6528;48.086;16.282;2023-09-19T04:15:41;22.40;1.00
12922;DHT22;6528;48.086;16.282;2023-09-19T04:18:08;22.40;1.00
12922;DHT22;6528;48.086;16.282;2023-09-19T04:20:35;22.40;1.00
12922;DHT22;6528;48.086;16.282;2023-09-19T04:23:03;22.40;1.00
12922;DHT22;6528;48.086;16.282;2023-09-19T04:25:32;22.40;1.00
12922;DHT22;6528;48.086;16.282;2023-09-19T04:27:59;22.40;1.00
12922;DHT22;6528;48.086;16.282;2023-09-19T04:30:27;22.30;1.00
12922;DHT22;6528;48.086;16.282;2023-09-19T04:32:55;22.40;1.00
12922;DHT22;6528;48.086;16.282;2023-09-19T04:35:22;22.30;1.00
12922;DHT22;6528;48.086;16.282;2023-09-19T04:37:50;22.40;1.00
12922;DHT22;6528;48.086;16.282;2023-09-19T04:40:17;22.40;1.00
12922;DHT22;6528;48.086;16.282;2023-09-19T04:42:53;22.40;1.00
12922;DHT22;6528;48.086;16.282;2023-09-19T04:45:28;22.40;1.00
12922;DHT22;6528;48.086;16.282;2023-09-19T04:47:55;22.30;1.00
12922;DHT22;6528;48.086;16.282;2023-09-19T04:50:23;22.30;1.00
12922;DHT22;6528;48.086;16.282;2023-09-19T04:52:53;22.30;1.00
12922;DHT22;6528;48.086;16.282;2023-09-19T04:55:21;22.30;1.00
12922;DHT22;6528;48.086;16.282;2023-09-19T04:57:52;22.30;1.00
12922;DHT22;6528;48.086;16.282;2023-09-19T05:00:23;22.30;1.00
12922;DHT22;6528;48.086;16.282;2023-09-19T05:02:52;22.20;1.00
12922;DHT22;6528;48.086;16.282;2023-09-19T05:05:20;22.20;1.00
12922;DHT22;6528;48.086;16.282;2023-09-19T05:07:48;22.20;1.00
12922;DHT22;6528;48.086;16.282;2023-09-19T05:10:15;22.30;1.00
12922;DHT22;6528;48.086;16.282;2023-09-19T05:12:46;22.20;1.00
12922;DHT22;6528;48.086;16.282;2023-09-19T05:15:15;22.20;1.00
12922;DHT22;6528;48.086;16.282;2023-09-19T05:17:51;22.10;1.00
12922;DHT22;6528;48.086;16.282;2023-09-19T05:20:23;22.20;1.00
12922;DHT22;6528;48.086;16.282;2023-09-19T05:23:01;22.20;1.00
12922;DHT22;6528;48.086;16.282;2023-09-19T05:25:31;22.10;1.00
12922;DHT22;6528;48.086;16.282;2023-09-19T05:27:59;22.10;1.00
12922;DHT22;6528;48.086;16.282;2023-09-19T05:30:27;22.10;1.00
12922;DHT22;6528;48.086;16.282;2023-09-19T05:32:56;22.10;1.00
12922;DHT22;6528;48.086;16.282;2023-09-19T05:35:24;22.10;1.00
12922;DHT22;6528;48.086;16.282;2023-09-19T05:37:52;22.10;1.00
12922;DHT22;6528;48.086;16.282;2023-09-19T05:40:19;22.10;1.00
12922;DHT22;6528;48.086;16.282;2023-09-19T05:42:47;22.10;1.00
12922;DHT22;6528;48.086;16.282;2023-09-19T05:45:14;22.20;1.00
12922;DHT22;6528;48.086;16.282;2023-09-19T05:47:46;22.20;1.00
12922;DHT22;6528;48.086;16.282;2023-09-19T05:50:13;22.30;1.00
12922;DHT22;6528;48.086;16.282;2023-09-19T05:52:42;22.40;1.00
12922;DHT22;6528;48.086;16.282;2023-09-19T05:55:10;22.50;1.00
12922;DHT22;6528;48.086;16.282;2023-09-19T05:57:38;22.60;1.00
12922;DHT22;6528;48.086;16.282;2023-09-19T06:00:06;22.70;1.00
12922;DHT22;6528;48.086;16.282;2023-09-19T06:02:37;22.80;1.00
12922;DHT22;6528;48.086;16.282;2023-09-19T06:05:06;22.90;1.00
12922;DHT22;6528;48.086;16.282;2023-09-19T06:07:33;22.90;1.00
12922;DHT22;6528;48.086;16.282;2023-09-19T06:10:04;23.00;1.00
12922;DHT22;6528;48.086;16.282;2023-09-19T06:12:42;23.00;1.00
12922;DHT22;6528;48.086;16.282;2023-09-19T06:15:13;23.10;1.00
12922;DHT22;6528;48.086;16.282;2023-09-19T06:17:50;23.10;1.00
12922;DHT22;6528;48.086;16.282;2023-09-19T06:20:18;23.20;1.00
12922;DHT22;6528;48.086;16.282;2023-09-19T06:22:47;23.20;1.00
12922;DHT22;6528;48.086;16.282;2023-09-19T06:25:15;23.20;1.00
12922;DHT22;6528;48.086;16.282;2023-09-19T06:27:56;23.20;1.00
12922;DHT22;6528;48.086;16.282;2023-09-19T06:30:24;23.30;1.00
12922;DHT22;6528;48.086;16.282;2023-09-19T06:32:57;23.30;1.00
12922;DHT22;6528;48.086;16.282;2023-09-19T06:35:25;23.30;1.00
12922;DHT22;6528;48.086;16.282;2023-09-19T06:37:53;23.30;1.00
12922;DHT22;6528;48.086;16.282;2023-09-19T06:40:21;23.30;1.00
12922;DHT22;6528;48.086;16.282;2023-09-19T06:42:52;23.40;1.00
12922;DHT22;6528;48.086;16.282;2023-09-19T06:45:23;23.40;1.00
12922;DHT22;6528;48.086;16.282;2023-09-19T06:47:54;23.40;1.00
12922;DHT22;6528;48.086;16.282;2023-09-19T06:50:26;23.40;1.00
12922;DHT22;6528;48.086;16.282;2023-09-19T06:52:55;23.40;1.00
12922;DHT22;6528;48.086;16.282;2023-09-19T06:55:25;23.40;1.00
12922;DHT22;6528;48.086;16.282;2023-09-19T06:57:56;23.50;1.00
12922;DHT22;6528;48.086;16.282;2023-09-19T07:00:23;23.50;1.00
12922;DHT22;6528;48.086;16.282;2023-09-19T07:02:58;23.50;1.00
12922;DHT22;6528;48.086;16.282;2023-09-19T07:05:28;23.50;1.00
12922;DHT22;6528;48.086;16.282;2023-09-19T07:07:59;23.50;1.00
12922;DHT22;6528;48.086;16.282;2023-09-19T07:10:28;23.50;1.00
12922;DHT22;6528;48.086;16.282;2023-09-19T07:13:03;23.50;1.00
12922;DHT22;6528;48.086;16.282;2023-09-19T07:15:32;23.50;1.00
12922;DHT22;6528;48.086;16.282;2023-09-19T07:18:07;23.50;1.00
12922;DHT22;6528;48.086;16.282;2023-09-19T07:20:36;23.50;1.00
12922;DHT22;6528;48.086;16.282;2023-09-19T07:23:04;23.50;1.00
12922;DHT22;6528;48.086;16.282;2023-09-19T07:25:31;23.50;1.00
12922;DHT22;6528;48.086;16.282;2023-09-19T07:27:59;23.50;1.00
12922;DHT22;6528;48.086;16.282;2023-09-19T07:30:28;23.50;1.00
12922;DHT22;6528;48.086;16.282;2023-09-19T07:32:56;23.50;1.00
12922;DHT22;6528;48.086;16.282;2023-09-19T07:35:24;23.60;1.00
12922;DHT22;6528;48.086;16.282;2023-09-19T07:37:52;23.60;1.00
12922;DHT22;6528;48.086;16.282;2023-09-19T07:40:20;23.60;1.00
12922;DHT22;6528;48.086;16.282;2023-09-19T07:42:48;23.60;1.00
12922;DHT22;6528;48.086;16.282;2023-09-19T07:45:16;23.60;1.00
12922;DHT22;6528;48.086;16.282;2023-09-19T07:47:47;23.60;1.00
12922;DHT22;6528;48.086;16.282;2023-09-19T07:50:16;23.60;1.00
12922;DHT22;6528;48.086;16.282;2023-09-19T07:52:47;23.60;1.00
12922;DHT22;6528;48.086;16.282;2023-09-19T07:55:14;23.70;1.00
12922;DHT22;6528;48.086;16.282;2023-09-19T07:57:47;23.60;1.00
12922;DHT22;6528;48.086;16.282;2023-09-19T08:00:14;23.70;1.00
12922;DHT22;6528;48.086;16.282;2023-09-19T08:02:43;23.70;1.00
12922;DHT22;6528;48.086;16.282;2023-09-19T08:05:12;23.70;1.00
12922;DHT22;6528;48.086;16.282;2023-09-19T08:07:44;23.70;1.00
12922;DHT22;6528;48.086;16.282;2023-09-19T08:10:16;23.80;1.00
12922;DHT22;6528;48.086;16.282;2023-09-19T08:12:48;23.80;1.00
12922;DHT22;6528;48.086;16.282;2023-09-19T08:15:20;23.80;1.00
12922;DHT22;6528;48.086;16.282;2023-09-19T08:17:48;23.80;1.00
12922;DHT22;6528;48.086;16.282;2023-09-19T08:20:16;23.80;1.00
12922;DHT22;6528;48.086;16.282;2023-09-19T08:22:52;23.80;1.00
12922;DHT22;6528;48.086;16.282;2023-09-19T08:25:21;23.80;1.00
12922;DHT22;6528;48.086;16.282;2023-09-19T08:27:50;23.80;1.00
12922;DHT22;6528;48.086;16.282;2023-09-19T08:30:19;23.80;1.00
12922;DHT22;6528;48.086;16.282;2023-09-19T08:32:57;23.80;1.00
12922;DHT22;6528;48.086;16.282;2023-09-19T08:35:26;23.80;1.00
12922;DHT22;6528;48.086;16.282;2023-09-19T08:37:53;23.80;1.00
12922;DHT22;6528;48.086;16.282;2023-09-19T08:40:23;23.80;1.00
12922;DHT22;6528;48.086;16.282;2023-09-19T08:42:52;23.80;1.00
12922;DHT22;6528;48.086;16.282;2023-09-19T08:45:21;23.80;1.00
12922;DHT22;6528;48.086;16.282;2023-09-19T08:48:04;23.80;1.00
12922;DHT22;6528;48.086;16.282;2023-09-19T08:50:55;23.80;1.00
12922;DHT22;6528;48.086;16.282;2023-09-19T08:56:03;23.80;1.00
12922;DHT22;6528;48.086;16.282;2023-09-19T08:58:50;23.80;1.00
12922;DHT22;6528;48.086;16.282;2023-09-19T09:01:21;23.80;1.00
12922;DHT22;6528;48.086;16.282;2023-09-19T09:03:56;23.80;1.00
12922;DHT22;6528;48.086;16.282;2023-09-19T09:06:25;23.80;1.00
12922;DHT22;6528;48.086;16.282;2023-09-19T09:08:55;23.80;1.00
12922;DHT22;6528;48.086;16.282;2023-09-19T09:11:23;23.80;1.00
12922;DHT22;6528;48.086;16.282;2023-09-19T09:13:52;23.80;1.00
12922;DHT22;6528;48.086;16.282;2023-09-19T09:16:19;23.80;1.00
12922;DHT22;6528;48.086;16.282;2023-09-19T09:18:47;23.80;1.00
12922;DHT22;6528;48.086;16.282;2023-09-19T09:21:23;23.80;1.00
12922;DHT22;6528;48.086;16.282;2023-09-19T09:23:52;23.90;1.00
12922;DHT22;6528;48.086;16.282;2023-09-19T09:29:06;23.90;1.00
12922;DHT22;6528;48.086;16.282;2023-09-19T09:31:33;23.80;1.00
12922;DHT22;6528;48.086;16.282;2023-09-19T09:34:01;23.90;1.00
12922;DHT22;6528;48.086;16.282;2023-09-19T09:36:36;23.90;1.00
12922;DHT22;6528;48.086;16.282;2023-09-19T09:39:04;23.90;1.00
12922;DHT22;6528;48.086;16.282;2023-09-19T09:41:43;24.00;1.00
12922;DHT22;6528;48.086;16.282;2023-09-19T09:44:15;24.00;1.00
12922;DHT22;6528;48.086;16.282;2023-09-19T09:46:48;24.10;1.00
12922;DHT22;6528;48.086;16.282;2023-09-19T09:49:27;24.20;1.00
12922;DHT22;6528;48.086;16.282;2023-09-19T09:52:05;24.30;1.00
12922;DHT22;6528;48.086;16.282;2023-09-19T09:55:01;24.30;1.00
12922;DHT22;6528;48.086;16.282;2023-09-19T09:57:33;24.60;1.00
12922;DHT22;6528;48.086;16.282;2023-09-19T10:00:02;24.60;1.00
12922;DHT22;6528;48.086;16.282;2023-09-19T10:02:39;24.50;1.00
12922;DHT22;6528;48.086;16.282;2023-09-19T10:05:17;24.50;1.00
12922;DHT22;6528;48.086;16.282;2023-09-19T10:07:56;24.50;1.00
12922;DHT22;6528;48.086;16.282;2023-09-19T10:10:38;24.50;1.00
12922;DHT22;6528;48.086;16.282;2023-09-19T10:13:26;24.60;1.00
12922;DHT22;6528;48.086;16.282;2023-09-19T10:15:57;24.70;1.00
12922;DHT22;6528;48.086;16.282;2023-09-19T10:18:27;24.80;1.00
12922;DHT22;6528;48.086;16.282;2023-09-19T10:20:58;24.90;1.00
12922;DHT22;6528;48.086;16.282;2023-09-19T10:23:28;25.00;1.00
12922;DHT22;6528;48.086;16.282;2023-09-19T10:25:59;25.20;1.00
12922;DHT22;6528;48.086;16.282;2023-09-19T10:28:30;25.30;1.00
12922;DHT22;6528;48.086;16.282;2023-09-19T10:31:00;25.40;1.00
12922;DHT22;6528;48.086;16.282;2023-09-19T10:33:35;25.40;1.00
12922;DHT22;6528;48.086;16.282;2023-09-19T10:36:05;25.50;1.00
12922;DHT22;6528;48.086;16.282;2023-09-19T10:38:33;25.50;1.00
12922;DHT22;6528;48.086;16.282;2023-09-19T10:41:03;25.50;1.00
12922;DHT22;6528;48.086;16.282;2023-09-19T10:43:33;25.40;1.00
12922;DHT22;6528;48.086;16.282;2023-09-19T10:46:07;25.50;1.00
12922;DHT22;6528;48.086;16.282;2023-09-19T10:48:35;25.50;1.00
12922;DHT22;6528;48.086;16.282;2023-09-19T10:51:07;25.50;1.00
12922;DHT22;6528;48.086;16.282;2023-09-19T10:56:26;25.40;1.00
12922;DHT22;6528;48.086;16.282;2023-09-19T10:59:13;25.40;1.00
12922;DHT22;6528;48.086;16.282;2023-09-19T11:04:31;25.30;1.00
12922;DHT22;6528;48.086;16.282;2023-09-19T11:07:08;25.20;1.00
12922;DHT22;6528;48.086;16.282;2023-09-19T11:09:49;25.20;1.00
12922;DHT22;6528;48.086;16.282;2023-09-19T11:15:08;25.20;1.00
12922;DHT22;6528;48.086;16.282;2023-09-19T11:17:41;25.10;1.00
12922;DHT22;6528;48.086;16.282;2023-09-19T11:36:09;25.00;1.00
12922;DHT22;6528;48.086;16.282;2023-09-19T11:43:53;24.90;1.00
12922;DHT22;6528;48.086;16.282;2023-09-19T11:46:27;24.90;1.00
12922;DHT22;6528;48.086;16.282;2023-09-19T11:49:08;24.80;1.00
12922;DHT22;6528;48.086;16.282;2023-09-19T11:51:56;24.90;1.00
12922;DHT22;6528;48.086;16.282;2023-09-19T11:54:24;24.80;1.00
12922;DHT22;6528;48.086;16.282;2023-09-19T11:56:55;24.80;1.00
12922;DHT22;6528;48.086;16.282;2023-09-19T11:59:30;24.80;1.00
12922;DHT22;6528;48.086;16.282;2023-09-19T12:02:04;24.80;1.00
12922;DHT22;6528;48.086;16.282;2023-09-19T12:04:37;24.80;1.00
12922;DHT22;6528;48.086;16.282;2023-09-19T12:07:07;24.80;1.00
12922;DHT22;6528;48.086;16.282;2023-09-19T12:09:43;24.80;1.00
12922;DHT22;6528;48.086;16.282;2023-09-19T12:12:11;24.70;1.00
12922;DHT22;6528;48.086;16.282;2023-09-19T12:14:50;24.70;1.00
12922;DHT22;6528;48.086;16.282;2023-09-19T12:17:20;24.70;1.00
12922;DHT22;6528;48.086;16.282;2023-09-19T12:19:52;24.70;1.00
12922;DHT22;6528;48.086;16.282;2023-09-19T12:22:20;24.70;1.00
12922;DHT22;6528;48.086;16.282;2023-09-19T12:24:48;24.70;1.00
12922;DHT22;6528;48.086;16.282;2023-09-19T12:27:17;24.70;1.00
12922;DHT22;6528;48.086;16.282;2023-09-19T12:29:46;24.70;1.00
12922;DHT22;6528;48.086;16.282;2023-09-19T12:32:18;24.70;1.00
12922;DHT22;6528;48.086;16.282;2023-09-19T12:34:52;24.70;1.00
12922;DHT22;6528;48.086;16.282;2023-09-19T12:37:22;24.70;1.00
12922;DHT22;6528;48.086;16.282;2023-09-19T12:39:52;24.70;1.00
12922;DHT22;6528;48.086;16.282;2023-09-19T12:42:26;24.70;1.00
12922;DHT22;6528;48.086;16.282;2023-09-19T12:45:07;24.70;1.00
12922;DHT22;6528;48.086;16.282;2023-09-19T12:47:36;24.70;1.00
12922;DHT22;6528;48.086;16.282;2023-09-19T12:50:14;24.70;1.00
12922;DHT22;6528;48.086;16.282;2023-09-19T12:52:49;24.70;1.00
12922;DHT22;6528;48.086;16.282;2023-09-19T13:00:44;24.70;1.00
12922;DHT22;6528;48.086;16.282;2023-09-19T13:03:30;24.70;1.00
12922;DHT22;6528;48.086;16.282;2023-09-19T13:06:03;24.70;1.00
12922;DHT22;6528;48.086;16.282;2023-09-19T13:08:34;24.70;1.00
12922;DHT22;6528;48.086;16.282;2023-09-19T13:13:45;24.70;1.00
12922;DHT22;6528;48.086;16.282;2023-09-19T13:16:16;24.70;1.00
12922;DHT22;6528;48.086;16.282;2023-09-19T13:18:53;24.60;1.00
12922;DHT22;6528;48.086;16.282;2023-09-19T13:21:33;24.70;1.00
12922;DHT22;6528;48.086;16.282;2023-09-19T13:24:24;24.60;1.00
12922;DHT22;6528;48.086;16.282;2023-09-19T13:26:54;24.60;1.00
12922;DHT22;6528;48.086;16.282;2023-09-19T13:29:22;24.60;1.00
12922;DHT22;6528;48.086;16.282;2023-09-19T13:31:51;24.60;1.00
12922;DHT22;6528;48.086;16.282;2023-09-19T13:34:22;24.60;1.00
12922;DHT22;6528;48.086;16.282;2023-09-19T13:36:49;24.60;1.00
12922;DHT22;6528;48.086;16.282;2023-09-19T13:39:17;24.60;1.00
12922;DHT22;6528;48.086;16.282;2023-09-19T13:41:45;24.60;1.00
12922;DHT22;6528;48.086;16.282;2023-09-19T13:44:14;24.60;1.00
12922;DHT22;6528;48.086;16.282;2023-09-19T13:46:42;24.60;1.00
12922;DHT22;6528;48.086;16.282;2023-09-19T13:49:14;24.60;1.00
12922;DHT22;6528;48.086;16.282;2023-09-19T13:51:41;24.60;1.00
12922;DHT22;6528;48.086;16.282;2023-09-19T13:54:11;24.60;1.00
12922;DHT22;6528;48.086;16.282;2023-09-19T13:56:39;24.60;1.00
12922;DHT22;6528;48.086;16.282;2023-09-19T13:59:07;24.50;1.00
12922;DHT22;6528;48.086;16.282;2023-09-19T14:01:35;24.60;1.00
12922;DHT22;6528;48.086;16.282;2023-09-19T14:04:02;24.50;1.00
12922;DHT22;6528;48.086;16.282;2023-09-19T14:06:30;24.60;1.00
12922;DHT22;6528;48.086;16.282;2023-09-19T14:08:57;24.50;1.00
12922;DHT22;6528;48.086;16.282;2023-09-19T14:11:24;24.50;1.00
12922;DHT22;6528;48.086;16.282;2023-09-19T14:13:53;24.50;1.00
12922;DHT22;6528;48.086;16.282;2023-09-19T14:16:23;24.50;1.00
12922;DHT22;6528;48.086;16.282;2023-09-19T14:18:51;24.50;1.00
12922;DHT22;6528;48.086;16.282;2023-09-19T14:21:19;24.50;1.00
12922;DHT22;6528;48.086;16.282;2023-09-19T14:23:47;24.50;1.00
12922;DHT22;6528;48.086;16.282;2023-09-19T14:26:16;24.50;1.00
12922;DHT22;6528;48.086;16.282;2023-09-19T14:28:44;24.50;1.00
12922;DHT22;6528;48.086;16.282;2023-09-19T14:31:12;24.50;1.00
12922;DHT22;6528;48.086;16.282;2023-09-19T14:33:39;24.50;1.00
12922;DHT22;6528;48.086;16.282;2023-09-19T14:36:09;24.50;1.00
12922;DHT22;6528;48.086;16.282;2023-09-19T14:38:38;24.50;1.00
12922;DHT22;6528;48.086;16.282;2023-09-19T14:41:06;24.50;1.00
12922;DHT22;6528;48.086;16.282;2023-09-19T14:43:34;24.50;1.00
12922;DHT22;6528;48.086;16.282;2023-09-19T14:46:05;24.50;1.00
12922;DHT22;6528;48.086;16.282;2023-09-19T14:48:37;24.50;1.00
12922;DHT22;6528;48.086;16.282;2023-09-19T14:51:06;24.50;1.00
12922;DHT22;6528;48.086;16.282;2023-09-19T14:53:36;24.40;1.00
12922;DHT22;6528;48.086;16.282;2023-09-19T14:56:08;24.50;1.00
12922;DHT22;6528;48.086;16.282;2023-09-19T14:58:36;24.50;1.00
12922;DHT22;6528;48.086;16.282;2023-09-19T15:01:07;24.40;1.00
12922;DHT22;6528;48.086;16.282;2023-09-19T15:03:35;24.40;1.00
12922;DHT22;6528;48.086;16.282;2023-09-19T15:06:04;24.50;1.00
12922;DHT22;6528;48.086;16.282;2023-09-19T15:08:33;24.50;1.00
12922;DHT22;6528;48.086;16.282;2023-09-19T15:11:08;24.40;1.00
12922;DHT22;6528;48.086;16.282;2023-09-19T15:13:36;24.40;1.00
12922;DHT22;6528;48.086;16.282;2023-09-19T15:16:05;24.40;1.00
12922;DHT22;6528;48.086;16.282;2023-09-19T15:18:37;24.40;1.00
12922;DHT22;6528;48.086;16.282;2023-09-19T15:21:10;24.40;1.00
12922;DHT22;6528;48.086;16.282;2023-09-19T15:23:39;24.40;1.00
12922;DHT22;6528;48.086;16.282;2023-09-19T15:26:08;24.40;1.00
12922;DHT22;6528;48.086;16.282;2023-09-19T15:28:44;24.40;1.00
12922;DHT22;6528;48.086;16.282;2023-09-19T15:31:13;24.40;1.00
12922;DHT22;6528;48.086;16.282;2023-09-19T15:33:40;24.40;1.00
12922;DHT22;6528;48.086;16.282;2023-09-19T15:36:10;24.40;1.00
12922;DHT22;6528;48.086;16.282;2023-09-19T15:39:02;24.40;1.00
12922;DHT22;6528;48.086;16.282;2023-09-19T15:44:00;24.40;1.00
12922;DHT22;6528;48.086;16.282;2023-09-19T15:46:30;24.40;1.00
12922;DHT22;6528;48.086;16.282;2023-09-19T15:48:58;24.40;1.00
12922;DHT22;6528;48.086;16.282;2023-09-19T15:51:26;24.40;1.00
12922;DHT22;6528;48.086;16.282;2023-09-19T15:53:55;24.30;1.00
12922;DHT22;6528;48.086;16.282;2023-09-19T15:56:23;24.40;1.00
12922;DHT22;6528;48.086;16.282;2023-09-19T15:58:53;24.30;1.00
12922;DHT22;6528;48.086;16.282;2023-09-19T16:01:22;24.30;1.00
12922;DHT22;6528;48.086;16.282;2023-09-19T16:03:51;24.30;1.00
12922;DHT22;6528;48.086;16.282;2023-09-19T16:06:22;24.30;1.00
12922;DHT22;6528;48.086;16.282;2023-09-19T16:08:58;24.30;1.00
12922;DHT22;6528;48.086;16.282;2023-09-19T16:11:27;24.30;1.00
12922;DHT22;6528;48.086;16.282;2023-09-19T16:13:55;24.30;1.00
12922;DHT22;6528;48.086;16.282;2023-09-19T16:16:25;24.30;1.00
12922;DHT22;6528;48.086;16.282;2023-09-19T16:18:55;24.30;1.00
12922;DHT22;6528;48.086;16.282;2023-09-19T16:21:25;24.30;1.00
12922;DHT22;6528;48.086;16.282;2023-09-19T16:23:57;24.30;1.00
12922;DHT22;6528;48.086;16.282;2023-09-19T16:26:26;24.30;1.00
12922;DHT22;6528;48.086;16.282;2023-09-19T16:28:57;24.30;1.00
12922;DHT22;6528;48.086;16.282;2023-09-19T16:31:29;24.30;1.00
12922;DHT22;6528;48.086;16.282;2023-09-19T16:33:56;24.20;1.00
12922;DHT22;6528;48.086;16.282;2023-09-19T16:36:26;24.30;1.00
12922;DHT22;6528;48.086;16.282;2023-09-19T16:38:54;24.20;1.00
12922;DHT22;6528;48.086;16.282;2023-09-19T16:41:21;24.20;1.00
12922;DHT22;6528;48.086;16.282;2023-09-19T16:43:48;24.20;1.00
12922;DHT22;6528;48.086;16.282;2023-09-19T16:46:16;24.20;1.00
12922;DHT22;6528;48.086;16.282;2023-09-19T16:48:45;24.20;1.00
12922;DHT22;6528;48.086;16.282;2023-09-19T16:51:16;24.20;1.00
12922;DHT22;6528;48.086;16.282;2023-09-19T16:53:43;24.20;1.00
12922;DHT22;6528;48.086;16.282;2023-09-19T16:56:16;24.20;1.00
12922;DHT22;6528;48.086;16.282;2023-09-19T16:58:47;24.30;1.00
12922;DHT22;6528;48.086;16.282;2023-09-19T17:01:15;24.40;1.00
12922;DHT22;6528;48.086;16.282;2023-09-19T17:03:45;24.40;1.00
12922;DHT22;6528;48.086;16.282;2023-09-19T17:06:17;24.40;1.00